Latest Weather Observations for Middle Percy Island

IDQ60801

Issued at 9:02 am EST Tuesday 7 December 2021 (issued every 10 minutes, with the page automatically refreshed every 10 minutes)

About weather observations | Map of weather stations | Latest weather observations for QLD | Other Formats
Station Details ID: 200001 Name: MIDDLE PERCY ISLAND Lat: -21.66 Lon: 150.27 Height: 208.7 m
Data from the previous 72 hours. | See also: Recent months at Middle Percy Island
Date/Time
EST
Temp
°C
App
Temp
°C
Dew
Point
°C
Rel
Hum
%
Delta-T
°C
Wind Press
QNH
hPa
Press
MSL
hPa
Rain since
9am
mm
Dir  Spd
km/h
Gust
km/h
Spd
kts
Gust
kts
07/09:00am 26.3 26.4 19.9 68 4.2 SE 19 24 10 13 1014.2 1013.0 0.0
07/08:30am 26.6 26.6 20.2 68 4.2 SE 20 28 11 15 1014.1 1012.9 0.0
07/08:00am 26.3 26.4 20.4 70 3.9 SE 20 28 11 15 1014.1 1012.9 0.0
07/07:30am 25.7 25.2 20.0 71 3.7 SE 22 28 12 15 1014.0 1012.8 0.0
07/07:00am 25.6 24.9 20.2 72 3.5 SE 24 32 13 17 1014.1 1012.9 0.0
07/06:30am 25.3 25.1 20.5 75 3.2 SE 22 30 12 16 1013.8 1012.6 0.0
07/06:00am 24.6 24.6 20.1 76 2.9 SE 20 30 11 16 1013.6 1012.4 0.0
07/05:30am 24.1 23.5 19.8 77 2.8 SE 22 32 12 17 1013.3 1012.1 0.0
07/05:00am 23.9 23.3 19.8 78 2.7 SE 22 33 12 18 1012.8 1011.6 0.0
07/04:30am 24.1 23.4 20.2 79 2.5 SE 24 35 13 19 1012.4 1011.1 0.0
07/04:00am 24.1 23.5 20.4 80 2.4 SE 24 33 13 18 1012.2 1010.9 0.0
07/03:30am 24.1 23.6 20.0 78 2.7 SE 22 32 12 17 1012.0 1010.7 0.0
07/03:00am 24.1 23.5 19.8 77 2.8 SE 22 32 12 17 1012.0 1010.7 0.0
07/02:30am 24.4 23.9 20.7 80 2.4 SE 24 37 13 20 1011.8 1010.5 0.0
07/02:00am 24.3 24.4 20.4 79 2.6 ESE 20 33 11 18 1012.1 1010.8 0.0
07/01:30am 24.3 23.8 20.0 77 2.8 ESE 22 32 12 17 1012.4 1011.1 0.0
07/01:00am 24.3 23.9 20.2 78 2.7 ESE 22 33 12 18 1012.5 1011.2 0.0
07/12:30am 24.5 24.8 20.4 78 2.7 ESE 19 28 10 15 1012.8 1011.6 0.0
07/12:00am 24.6 24.8 20.5 78 2.7 ESE 20 32 11 17 1013.3 1012.1 0.0
 
Date/Time
EST
Temp
°C
App
Temp
°C
Dew
Point
°C
Rel
Hum
%
Delta-T
°C
Wind Press
QNH
hPa
Press
MSL
hPa
Rain since
9am
mm
Dir  Spd
km/h
Gust
km/h
Spd
kts
Gust
kts
06/11:30pm 24.6 24.4 20.5 78 2.7 SE 22 33 12 18 1013.4 1012.2 0.0
06/11:00pm 24.6 24.4 20.5 78 2.7 ESE 22 33 12 18 1013.5 1012.3 0.0
06/10:30pm 24.6 23.9 20.3 77 2.8 ESE 24 33 13 18 1013.8 1012.6 0.0
06/10:00pm 24.6 23.5 20.3 77 2.8 SE 26 39 14 21 1013.8 1012.6 0.0
06/09:30pm 24.6 23.9 20.3 77 2.8 SE 24 32 13 17 1013.5 1012.3 0.0
06/09:00pm 24.7 24.4 20.4 77 2.8 ESE 22 32 12 17 1013.4 1012.2 0.0
06/08:30pm 24.6 24.9 20.3 77 2.8 ESE 19 33 10 18 1013.2 1012.0 0.0
06/08:00pm 24.5 26.7 20.4 78 2.7 E 9 20 5 11 1012.7 1011.5 0.0
06/07:30pm 24.7 24.8 20.0 75 3.1 ESE 19 32 10 17 1012.4 1011.1 0.0
06/07:00pm 24.8 24.5 20.3 76 3.0 ESE 22 37 12 20 1012.3 1011.0 0.0
06/06:30pm 24.9 24.8 19.9 74 3.3 ESE 20 32 11 17 1012.2 1010.9 0.0
06/06:00pm 25.3 25.4 19.9 72 3.5 ESE 19 32 10 17 1011.8 1010.5 0.0
06/05:30pm 25.9 25.4 20.0 70 3.9 ESE 22 32 12 17 1011.6 1010.3 0.0
06/05:00pm 26.4 25.7 20.3 69 4.0 SE 24 32 13 17 1011.4 1010.1 0.0
06/04:30pm 26.6 25.4 20.0 67 4.3 SE 26 39 14 21 1011.2 1009.9 0.0
06/04:00pm 26.8 24.9 20.2 67 4.4 SE 30 39 16 21 1011.2 1009.9 0.0
06/03:30pm 27.0 25.0 19.9 65 4.7 SE 30 41 16 22 1011.3 1010.0 0.0
06/03:00pm 27.4 26.0 20.5 66 4.6 SE 28 37 15 20 1011.5 1010.2 0.0
06/02:30pm 27.0 25.8 20.1 66 4.5 SE 26 37 14 20 1011.7 1010.4 0.0
06/02:00pm 27.7 26.7 20.5 65 4.8 SE 26 35 14 19 1011.9 1010.6 0.0
06/01:30pm 27.6 26.9 20.2 64 4.9 SE 24 33 13 18 1012.2 1010.9 0.0
06/01:00pm 27.6 26.6 20.4 65 4.8 SE 26 33 14 18 1012.3 1011.0 0.0
06/12:30pm 27.8 27.1 21.1 67 4.5 SE 26 35 14 19 1012.2 1010.9 0.0
06/12:00pm 27.6 26.6 21.2 68 4.3 SE 28 35 15 19 1012.4 1011.1 0.0
06/11:30am 27.8 26.7 21.1 67 4.5 SE 28 35 15 19 1012.6 1011.4 0.0
06/11:00am 27.3 26.7 20.6 67 4.4 SE 24 35 13 19 1012.8 1011.6 0.0
06/10:30am 27.7 27.5 21.3 68 4.3 SE 24 35 13 19 1013.0 1011.8 0.0
06/10:00am 26.9 25.6 20.7 69 4.1 SE 28 39 15 21 1012.9 1011.7 0.0
06/09:30am 27.1 26.3 20.9 69 4.1 SE 26 39 14 21 1013.0 1011.8 0.0
06/09:00am 26.9 26.5 21.0 70 3.9 SE 24 35 13 19 1013.1 1011.9 0.0
06/08:30am 26.4 25.7 20.3 69 4.0 ESE 24 35 13 19 1013.1 1011.9 0.0
06/08:00am 26.0 25.3 20.3 71 3.8 ESE 24 33 13 18 1013.2 1012.0 0.0
06/07:30am 26.0 25.1 20.6 72 3.6 SE 26 33 14 18 1013.3 1012.1 0.0
06/07:00am 25.6 25.4 20.6 74 3.3 SE 22 32 12 17 1013.0 1011.8 0.0
06/06:30am 25.0 24.3 20.3 75 3.1 SE 24 33 13 18 1012.7 1011.5 0.0
06/06:00am 24.5 24.5 20.2 77 2.8 SE 20 28 11 15 1012.5 1011.2 0.0
06/05:30am 24.3 24.9 20.2 78 2.7 ESE 17 28 9 15 1012.2 1010.9 0.0
06/05:00am 24.1 24.5 19.8 77 2.8 ESE 17 28 9 15 1011.8 1010.5 0.0
06/04:30am 24.1 23.9 19.8 77 2.8 ESE 20 32 11 17 1011.6 1010.3 0.0
06/04:00am 24.0 23.8 19.7 77 2.8 ESE 20 30 11 16 1011.2 1009.9 0.0
06/03:30am 24.0 24.3 19.5 76 2.9 ESE 17 24 9 13 1011.0 1009.7 0.0
06/03:00am 24.1 23.7 19.4 75 3.0 ESE 20 32 11 17 1011.0 1009.7 0.0
06/02:30am 24.2 23.4 19.3 74 3.2 ESE 22 33 12 18 1011.1 1009.8 0.0
06/02:00am 24.1 23.8 19.2 74 3.2 ESE 19 37 10 20 1011.2 1009.9 0.0
06/01:30am 24.3 23.2 19.4 74 3.2 SE 24 35 13 19 1011.8 1010.5 0.0
06/01:00am 24.3 23.2 19.4 74 3.2 ESE 24 33 13 18 1011.9 1010.6 0.0
06/12:30am 24.4 22.6 18.8 71 3.6 ESE 26 37 14 20 1012.1 1010.8 0.0
06/12:00am 24.6 22.9 19.0 71 3.6 ESE 26 39 14 21 1012.5 1011.2 0.0
 
Date/Time
EST
Temp
°C
App
Temp
°C
Dew
Point
°C
Rel
Hum
%
Delta-T
°C
Wind Press
QNH
hPa
Press
MSL
hPa
Rain since
9am
mm
Dir  Spd
km/h
Gust
km/h
Spd
kts
Gust
kts
05/11:30pm 24.4 23.2 19.2 73 3.4 ESE 24 37 13 20 1012.7 1011.5 0.0
05/11:00pm 24.6 23.0 19.2 72 3.5 ESE 26 37 14 20 1012.8 1011.6 0.0
05/10:30pm 24.8 23.0 19.6 73 3.4 ESE 28 43 15 23 1013.0 1011.8 0.0
05/10:00pm 24.6 24.9 19.7 74 3.2 ESE 17 32 9 17 1012.4 1011.1 0.0
05/09:30pm 24.6 24.2 19.4 73 3.4 ESE 20 35 11 19 1012.1 1010.8 0.0
05/09:00pm 24.8 23.4 19.6 73 3.4 ESE 26 41 14 22 1012.4 1011.1 0.0
05/08:30pm 24.8 22.8 19.2 71 3.6 ESE 28 44 15 24 1012.4 1011.1 0.0
05/08:00pm 24.9 22.2 19.7 73 3.4 SE 33 48 18 26 1012.2 1010.9 0.0
05/07:30pm 25.0 23.2 19.6 72 3.5 ESE 28 44 15 24 1012.0 1010.7 0.0
05/07:00pm 24.9 24.2 19.5 72 3.5 ESE 22 39 12 21 1011.7 1010.4 0.0
05/06:30pm 25.0 22.8 19.6 72 3.5 ESE 30 46 16 25 1011.2 1009.9 0.0
05/06:00pm 25.4 23.6 19.5 70 3.8 ESE 28 44 15 24 1010.8 1009.5 0.0
05/05:30pm 25.9 23.8 19.8 69 4.0 ESE 30 43 16 23 1010.4 1009.1 0.0
05/05:00pm 26.2 24.9 19.8 68 4.2 ESE 26 39 14 21 1010.1 1008.9 0.0
05/04:30pm 26.5 24.6 20.1 68 4.2 SE 30 39 16 21 1010.0 1008.8 0.0
05/04:00pm 26.9 25.1 20.3 67 4.4 SE 30 43 16 23 1010.1 1008.9 0.0
05/03:30pm 26.9 24.4 19.8 65 4.7 SE 32 41 17 22 1010.1 1008.9 0.0
05/03:00pm 27.3 25.9 20.4 66 4.6 SE 28 39 15 21 1010.4 1009.1 0.0
05/02:30pm 27.3 26.3 20.4 66 4.6 SE 26 33 14 18 1010.5 1009.2 0.0
05/02:00pm 28.1 28.5 20.9 65 4.8 SE 20 32 11 17 1010.5 1009.2 0.0
05/01:30pm 28.1 28.3 20.6 63 5.0 SE 20 28 11 15 1010.7 1009.4 0.0
05/01:00pm 27.9 28.2 20.5 64 4.9 ESE 19 24 10 13 1010.9 1009.6 0.0
05/12:30pm 28.3 29.1 20.6 63 5.1 SE 17 28 9 15 1011.3 1010.0 0.0
05/12:00pm 28.1 28.5 20.6 63 5.0 SE 19 26 10 14 1011.4 1010.1 0.0
05/11:30am 27.4 28.5 19.7 63 5.0 SE 13 20 7 11 1011.7 1010.4 0.0
05/11:00am 28.1 30.2 20.9 65 4.8 ESE 11 19 6 10 1011.7 1010.4 0.0
05/10:30am 27.7 28.0 20.5 65 4.8 SE 19 28 10 15 1012.1 1010.8 0.0
05/10:00am 27.5 28.0 20.8 67 4.5 SE 19 28 10 15 1012.4 1011.1 0.0
05/09:30am 27.4 27.5 21.2 69 4.1 SE 22 32 12 17 1012.5 1011.2 0.0
05/09:00am 26.1 24.3 20.4 71 3.8 SSE 30 37 16 20 1012.7 1011.5 0.0
05/08:30am 26.4 25.1 20.7 71 3.8 SSE 28 37 15 20 1012.9 1011.7 0.0
05/08:00am 25.9 25.0 20.7 73 3.4 SSE 26 41 14 22 1012.9 1011.7 0.0
05/07:30am 25.4 25.1 21.1 77 2.9 SE 24 35 13 19 1012.8 1011.6 0.0
05/07:00am 25.6 25.1 21.5 78 2.7 SE 26 35 14 19 1012.1 1010.8 0.0
05/06:30am 24.6 25.2 21.3 82 2.2 SE 20 28 11 15 1012.1 1010.8 0.0
05/06:00am 24.1 24.8 21.2 84 1.9 SE 19 28 10 15 1011.8 1010.5 0.0
05/05:30am 23.6 25.7 20.9 85 1.8 SSE 11 15 6 8 1011.1 1009.8 0.0
05/05:00am 23.5 25.5 20.8 85 1.8 SE 11 13 6 7 1010.9 1009.6 0.0
05/04:30am 23.4 25.4 20.7 85 1.8 SSE 11 15 6 8 1010.9 1009.6 0.0
05/04:00am 23.5 26.3 20.8 85 1.8 SE 7 11 4 6 1010.7 1009.4 0.0
05/03:30am 23.4 26.2 20.5 84 1.9 SE 6 9 3 5 1010.2 1009.0 0.0
05/03:00am 23.7 26.5 20.8 84 1.9 E 7 11 4 6 1010.2 1009.0 0.0
05/02:30am 23.8 26.2 20.9 84 1.9 ENE 9 15 5 8 1009.7 1008.5 0.0
05/02:00am 23.7 26.0 20.6 83 2.0 ENE 9 15 5 8 1009.8 1008.6 0.0
05/01:30am 23.8 25.7 20.5 82 2.2 ENE 11 19 6 10 1010.0 1008.8 0.0
05/01:00am 23.9 25.8 20.6 82 2.2 ENE 11 19 6 10 1010.4 1009.1 0.0
05/12:30am 24.1 26.4 20.6 81 2.3 E 9 17 5 9 1011.0 1009.7 0.0
05/12:00am 24.1 26.0 20.6 81 2.3 E 11 17 6 9 1011.4 1010.1 0.0
 
Date/Time
EST
Temp
°C
App
Temp
°C
Dew
Point
°C
Rel
Hum
%
Delta-T
°C
Wind Press
QNH
hPa
Press
MSL
hPa
Rain since
9am
mm
Dir  Spd
km/h
Gust
km/h
Spd
kts
Gust
kts
04/11:30pm 24.2 26.6 20.9 82 2.2 E 9 19 5 10 1011.8 1010.5 0.0
04/11:00pm 24.2 26.3 20.9 82 2.2 E 11 19 6 10 1011.9 1010.6 0.0
04/10:30pm 24.1 25.7 20.8 82 2.2 ENE 13 24 7 13 1011.9 1010.6 0.0
04/10:00pm 24.3 25.9 20.8 81 2.3 ENE 13 22 7 12 1011.9 1010.6 0.0
04/09:30pm 24.3 25.9 20.8 81 2.3 E 13 22 7 12 1011.9 1010.6 0.0
04/09:00pm 24.2 26.9 20.7 81 2.3 E 7 15 4 8 1011.9 1010.6 0.0
04/08:30pm 24.2 26.2 20.7 81 2.3 E 11 20 6 11 1011.5 1010.2 0.0
04/08:00pm 24.4 26.0 20.7 80 2.4 E 13 20 7 11 1011.6 1010.3 0.0
04/07:30pm 24.4 25.5 20.5 79 2.6 ENE 15 24 8 13 1011.2 1009.9 0.0
04/07:00pm 24.4 25.5 20.5 79 2.6 ENE 15 22 8 12 1010.9 1009.6 0.0
04/06:30pm 24.6 26.7 20.1 76 2.9 ENE 9 17 5 9 1010.8 1009.5 0.0
04/06:00pm 25.5 28.1 20.5 74 3.3 E 7 17 4 9 1010.4 1009.1 0.0
04/05:30pm 25.8 26.0 20.6 73 3.4 ESE 20 30 11 16 1010.2 1009.0 0.0
04/05:00pm 26.1 26.4 20.7 72 3.6 ESE 20 32 11 17 1010.5 1009.2 0.0
04/04:30pm 26.4 26.7 20.7 71 3.8 ESE 20 30 11 16 1010.4 1009.1 0.0
04/04:00pm 26.9 27.7 20.7 69 4.1 ESE 17 28 9 15 1010.2 1009.0 0.0
04/03:30pm 26.8 26.4 20.9 70 3.9 SE 24 32 13 17 1010.4 1009.1 0.0
04/03:00pm 27.6 28.5 21.9 71 3.9 SE 20 30 11 16 1010.7 1009.4 0.0
04/02:30pm 27.2 27.3 21.2 69 4.0 ESE 22 30 12 16 1010.9 1009.6 0.0
04/02:00pm 27.6 27.7 21.2 68 4.3 SE 22 30 12 16 1011.2 1009.9 0.0
04/01:30pm 27.9 28.3 21.7 69 4.2 SE 22 32 12 17 1011.6 1010.3 0.0
04/01:00pm 28.4 28.5 21.2 65 4.8 SE 22 32 12 17 1012.0 1010.7 0.0
04/12:30pm 28.0 28.6 21.3 67 4.5 SSE 20 32 11 17 1012.1 1010.8 0.0
04/12:00pm 27.7 26.8 21.5 69 4.2 SSE 28 37 15 20 1012.3 1011.0 0.0
04/11:30am 27.5 26.5 21.3 69 4.2 SSE 28 37 15 20 1012.6 1011.4 0.0
04/11:00am 26.7 25.9 20.8 70 3.9 SSE 26 35 14 19 1012.9 1011.7 0.0
04/10:30am 27.8 28.1 22.3 72 3.7 SSE 24 37 13 20 1013.4 1012.2 0.0
04/10:00am 26.4 25.1 20.7 71 3.8 SSE 28 39 15 21 1013.3 1012.1 0.0
04/09:30am 26.6 25.3 21.4 73 3.5 SSE 30 37 16 20 1013.5 1012.3 0.0

Other formats

Comma delimited format used in spreadsheet applications
http://www.bom.gov.au/fwo/IDQ60801/IDQ60801.94372.axf

JavaScript Object Notation format (JSON) in row-major order
http://www.bom.gov.au/fwo/IDQ60801/IDQ60801.94372.json

Data quality

Most of these data are generated automatically and are frequently updated. Quality checks on data are not normally performed. It is possible for incorrect values to appear. Refer to information at About Latest Weather Observations and please check the disclaimer before using these data.